Lufkin, TX

3:09 PM CDT on April 25, 2017 (GMT -0500)
Inwood Terrace | | Change Station
Active Advisory: Lake Wind Advisory

Elev 280 ft 31.32 °N, 94.71 °W | Updated 7 seconds ago

Mostly Cloudy
Mostly Cloudy
82.9 °F
Feels Like 85 °F
N
1.8
Wind Variable Wind from SSW
Gusts 2.5 mph

Today
High -- | Low -- °F
--% Chance of Precip.
Yesterday
High -- | Low -- °F
Precip. -- in
Pressure 29.62 in
Visibility 10.0 miles
Clouds Mostly Cloudy 3700 ft
Heat Index 85 °F
Dew Point 65 °F
Humidity 54%
Rainfall 0.00 in
Snow Depth Not available.
6:39 AM 7:54 PM
Waning Crescent, 1% visible
METAR KLFK 251953Z AUTO 16014G21KT 10SM BKN037 27/19 A2963 RMK AO2 SLP031 T02670189
Pressure 29.62 in
Visibility 10.0 miles
Clouds Mostly Cloudy 3700 ft
Heat Index 85 °F
Dew Point 65 °F
Humidity 54%
Rainfall 0.00 in
Snow Depth Not available.
6:39 AM 7:54 PM
Waning Crescent, 1% visible
METAR KLFK 251953Z AUTO 16014G21KT 10SM BKN037 27/19 A2963 RMK AO2 SLP031 T02670189

Get Your Daily Forecast Email!

Thanks for signing up!

Be on the lookout for a verification email in your inbox.

You'll start receiving severe weather alerts in your inbox..

×

10-Day Weather Forecast

Almanac

Astronomy

Apr. 25, 2017 Rise Set
Actual Time
Civil Twilight
Nautical Twilight
Astronomical Twilight
Moon
Length of Visible Light
Length of Day
Tomorrow will be .
, % of the Moon is Illuminated

Today's Extremes

State Highs State Lows

Community

WunderPhotos

WunderBlog® & News

Nearby

Air Quality

  Air Quality AQ Index Pollutant
Not available.

Snow Depth

Station Depth Elevation

Earthquake Activity

City Distance Mag. Time & Date
Minimum magnitude displayed is 2.5.

Coastal Water Temperatures

Place Temperature

Stations

Nearby Weather Stations

Station Location Temp. Windchill Dew Point Humidity Wind Precip. Elev Updated Type
                   

Watches & Warnings

Lake Wind Advisory
Issued: 3:58 AM CDT Apr. 25, 2017 – National Weather Service

... Lake Wind Advisory now in effect from 10 am this morning to
midnight CDT tonight...

* event... a tightening pressure gradient across the Southern
Plains will result in increasing southerly wind speeds today.


* Timing... sustained southerly wind speeds of 15 to 20 mph with
gusts nearing 30 mph will commence around 10 am this morning
across portions of northeast Texas. Remaining areas of the
region will see these increasing winds by late morning, with
these conditions persisting this evening into tonight.


* Impact... boaters should exercise caution on area lakes due to
rough chop conditions.

Precautionary/preparedness actions...

A lake Wind Advisory indicates that winds will cause rough chop
on area lakes. Small boats will be especially prone to capsizing.